sensor_id;sensor_type;location;lat;lon;timestamp;P1;durP1;ratioP1;P2;durP2;ratioP2
44832;SDS011;30569;51.252;9.830;2023-05-07T00:01:08;34.13;;;22.88;;
44832;SDS011;30569;51.252;9.830;2023-05-07T00:03:34;29.15;;;22.52;;
44832;SDS011;30569;51.252;9.830;2023-05-07T00:06:00;33.55;;;24.77;;
44832;SDS011;30569;51.252;9.830;2023-05-07T00:08:25;36.78;;;25.83;;
44832;SDS011;30569;51.252;9.830;2023-05-07T00:10:51;37.80;;;25.08;;
44832;SDS011;30569;51.252;9.830;2023-05-07T00:13:16;39.35;;;23.95;;
44832;SDS011;30569;51.252;9.830;2023-05-07T00:15:42;36.50;;;25.20;;
44832;SDS011;30569;51.252;9.830;2023-05-07T00:18:08;34.67;;;24.05;;
44832;SDS011;30569;51.252;9.830;2023-05-07T00:20:33;31.25;;;24.30;;
44832;SDS011;30569;51.252;9.830;2023-05-07T00:22:59;32.30;;;22.83;;
44832;SDS011;30569;51.252;9.830;2023-05-07T00:25:25;30.00;;;20.98;;
44832;SDS011;30569;51.252;9.830;2023-05-07T00:27:50;28.25;;;19.90;;
44832;SDS011;30569;51.252;9.830;2023-05-07T00:30:16;27.10;;;20.50;;
44832;SDS011;30569;51.252;9.830;2023-05-07T00:32:41;28.10;;;21.02;;
44832;SDS011;30569;51.252;9.830;2023-05-07T00:35:07;26.70;;;20.13;;
44832;SDS011;30569;51.252;9.830;2023-05-07T00:37:33;25.67;;;19.42;;
44832;SDS011;30569;51.252;9.830;2023-05-07T00:39:58;32.75;;;19.05;;
44832;SDS011;30569;51.252;9.830;2023-05-07T00:42:24;27.90;;;19.02;;
44832;SDS011;30569;51.252;9.830;2023-05-07T00:44:49;27.55;;;19.20;;
44832;SDS011;30569;51.252;9.830;2023-05-07T00:47:15;26.30;;;19.63;;
44832;SDS011;30569;51.252;9.830;2023-05-07T00:49:42;25.80;;;17.98;;
44832;SDS011;30569;51.252;9.830;2023-05-07T00:52:09;25.02;;;18.63;;
44832;SDS011;30569;51.252;9.830;2023-05-07T00:54:37;27.27;;;19.00;;
44832;SDS011;30569;51.252;9.830;2023-05-07T00:57:05;26.88;;;18.80;;
44832;SDS011;30569;51.252;9.830;2023-05-07T00:59:31;23.25;;;17.02;;
44832;SDS011;30569;51.252;9.830;2023-05-07T01:01:57;25.55;;;16.95;;
44832;SDS011;30569;51.252;9.830;2023-05-07T01:04:23;22.55;;;17.25;;
44832;SDS011;30569;51.252;9.830;2023-05-07T01:06:49;24.42;;;17.08;;
44832;SDS011;30569;51.252;9.830;2023-05-07T01:09:15;24.70;;;17.65;;
44832;SDS011;30569;51.252;9.830;2023-05-07T01:11:41;26.15;;;18.58;;
44832;SDS011;30569;51.252;9.830;2023-05-07T01:14:08;27.55;;;20.25;;
44832;SDS011;30569;51.252;9.830;2023-05-07T01:16:34;27.23;;;19.35;;
44832;SDS011;30569;51.252;9.830;2023-05-07T01:19:01;35.83;;;23.23;;
44832;SDS011;30569;51.252;9.830;2023-05-07T01:21:26;30.67;;;21.50;;
44832;SDS011;30569;51.252;9.830;2023-05-07T01:23:57;30.45;;;22.05;;
44832;SDS011;30569;51.252;9.830;2023-05-07T01:26:23;31.90;;;23.05;;
44832;SDS011;30569;51.252;9.830;2023-05-07T01:28:48;35.90;;;23.83;;
44832;SDS011;30569;51.252;9.830;2023-05-07T01:31:15;34.55;;;24.55;;
44832;SDS011;30569;51.252;9.830;2023-05-07T01:33:42;35.42;;;24.25;;
44832;SDS011;30569;51.252;9.830;2023-05-07T01:36:10;33.67;;;23.55;;
44832;SDS011;30569;51.252;9.830;2023-05-07T01:38:38;36.28;;;24.05;;
44832;SDS011;30569;51.252;9.830;2023-05-07T01:41:06;33.92;;;23.88;;
44832;SDS011;30569;51.252;9.830;2023-05-07T01:43:32;29.23;;;21.05;;
44832;SDS011;30569;51.252;9.830;2023-05-07T01:45:58;29.15;;;21.45;;
44832;SDS011;30569;51.252;9.830;2023-05-07T01:48:25;32.90;;;23.77;;
44832;SDS011;30569;51.252;9.830;2023-05-07T01:50:51;31.58;;;22.40;;
44832;SDS011;30569;51.252;9.830;2023-05-07T01:53:17;32.28;;;23.58;;
44832;SDS011;30569;51.252;9.830;2023-05-07T01:55:42;39.28;;;23.98;;
44832;SDS011;30569;51.252;9.830;2023-05-07T01:58:08;33.60;;;24.70;;
44832;SDS011;30569;51.252;9.830;2023-05-07T02:00:34;39.00;;;24.65;;
44832;SDS011;30569;51.252;9.830;2023-05-07T02:02:59;36.70;;;23.48;;
44832;SDS011;30569;51.252;9.830;2023-05-07T02:05:25;33.45;;;22.85;;
44832;SDS011;30569;51.252;9.830;2023-05-07T02:07:51;39.08;;;24.73;;
44832;SDS011;30569;51.252;9.830;2023-05-07T02:10:16;34.03;;;22.70;;
44832;SDS011;30569;51.252;9.830;2023-05-07T02:12:42;34.10;;;23.65;;
44832;SDS011;30569;51.252;9.830;2023-05-07T02:15:08;37.20;;;25.48;;
44832;SDS011;30569;51.252;9.830;2023-05-07T02:17:35;54.30;;;27.05;;
44832;SDS011;30569;51.252;9.830;2023-05-07T02:20:02;40.33;;;27.50;;
44832;SDS011;30569;51.252;9.830;2023-05-07T02:22:28;39.42;;;26.90;;
44832;SDS011;30569;51.252;9.830;2023-05-07T02:24:55;38.20;;;25.50;;
44832;SDS011;30569;51.252;9.830;2023-05-07T02:27:21;37.90;;;26.15;;
44832;SDS011;30569;51.252;9.830;2023-05-07T02:29:46;40.60;;;25.35;;
44832;SDS011;30569;51.252;9.830;2023-05-07T02:32:12;38.13;;;23.52;;
44832;SDS011;30569;51.252;9.830;2023-05-07T02:34:38;37.20;;;24.27;;
44832;SDS011;30569;51.252;9.830;2023-05-07T02:37:04;38.83;;;25.60;;
44832;SDS011;30569;51.252;9.830;2023-05-07T02:39:30;38.08;;;24.75;;
44832;SDS011;30569;51.252;9.830;2023-05-07T02:41:55;37.55;;;24.45;;
44832;SDS011;30569;51.252;9.830;2023-05-07T02:44:21;36.47;;;24.10;;
44832;SDS011;30569;51.252;9.830;2023-05-07T02:46:47;38.45;;;25.77;;
44832;SDS011;30569;51.252;9.830;2023-05-07T02:49:13;36.30;;;24.27;;
44832;SDS011;30569;51.252;9.830;2023-05-07T02:51:39;38.78;;;25.13;;
44832;SDS011;30569;51.252;9.830;2023-05-07T02:54:04;38.10;;;25.30;;
44832;SDS011;30569;51.252;9.830;2023-05-07T02:56:30;38.75;;;26.10;;
44832;SDS011;30569;51.252;9.830;2023-05-07T02:58:56;36.05;;;25.30;;
44832;SDS011;30569;51.252;9.830;2023-05-07T03:01:21;36.03;;;24.75;;
44832;SDS011;30569;51.252;9.830;2023-05-07T03:03:47;41.58;;;25.58;;
44832;SDS011;30569;51.252;9.830;2023-05-07T03:06:13;38.15;;;25.52;;
44832;SDS011;30569;51.252;9.830;2023-05-07T03:08:38;38.78;;;24.08;;
44832;SDS011;30569;51.252;9.830;2023-05-07T03:11:04;38.30;;;24.45;;
44832;SDS011;30569;51.252;9.830;2023-05-07T03:13:29;40.60;;;24.88;;
44832;SDS011;30569;51.252;9.830;2023-05-07T03:15:55;37.83;;;24.55;;
44832;SDS011;30569;51.252;9.830;2023-05-07T03:18:21;36.53;;;25.27;;
44832;SDS011;30569;51.252;9.830;2023-05-07T03:20:47;34.80;;;23.00;;
44832;SDS011;30569;51.252;9.830;2023-05-07T03:23:13;35.83;;;24.63;;
44832;SDS011;30569;51.252;9.830;2023-05-07T03:25:39;38.72;;;25.50;;
44832;SDS011;30569;51.252;9.830;2023-05-07T03:28:05;38.28;;;25.05;;
44832;SDS011;30569;51.252;9.830;2023-05-07T03:30:31;40.13;;;25.23;;
44832;SDS011;30569;51.252;9.830;2023-05-07T03:32:56;40.72;;;25.75;;
44832;SDS011;30569;51.252;9.830;2023-05-07T03:35:22;38.63;;;25.13;;
44832;SDS011;30569;51.252;9.830;2023-05-07T03:37:47;42.15;;;25.40;;
44832;SDS011;30569;51.252;9.830;2023-05-07T03:40:13;38.80;;;23.73;;
44832;SDS011;30569;51.252;9.830;2023-05-07T03:42:38;40.30;;;24.67;;
44832;SDS011;30569;51.252;9.830;2023-05-07T03:45:04;39.63;;;25.80;;
44832;SDS011;30569;51.252;9.830;2023-05-07T03:47:31;39.75;;;24.30;;
44832;SDS011;30569;51.252;9.830;2023-05-07T03:49:56;41.10;;;26.60;;
44832;SDS011;30569;51.252;9.830;2023-05-07T03:52:22;42.03;;;28.77;;
44832;SDS011;30569;51.252;9.830;2023-05-07T03:54:51;44.22;;;27.50;;
44832;SDS011;30569;51.252;9.830;2023-05-07T03:57:17;40.75;;;26.45;;
44832;SDS011;30569;51.252;9.830;2023-05-07T03:59:42;41.60;;;26.98;;
44832;SDS011;30569;51.252;9.830;2023-05-07T04:02:08;43.58;;;26.67;;
44832;SDS011;30569;51.252;9.830;2023-05-07T04:04:33;39.30;;;25.27;;
44832;SDS011;30569;51.252;9.830;2023-05-07T04:06:59;40.20;;;25.75;;
44832;SDS011;30569;51.252;9.830;2023-05-07T04:09:25;37.72;;;23.48;;
44832;SDS011;30569;51.252;9.830;2023-05-07T04:11:51;37.35;;;22.38;;
44832;SDS011;30569;51.252;9.830;2023-05-07T04:14:17;33.67;;;20.48;;
44832;SDS011;30569;51.252;9.830;2023-05-07T04:16:43;34.83;;;21.27;;
44832;SDS011;30569;51.252;9.830;2023-05-07T04:19:09;35.17;;;21.10;;
44832;SDS011;30569;51.252;9.830;2023-05-07T04:21:35;39.60;;;21.20;;
44832;SDS011;30569;51.252;9.830;2023-05-07T04:24:02;34.10;;;19.17;;
44832;SDS011;30569;51.252;9.830;2023-05-07T04:26:28;32.20;;;20.27;;
44832;SDS011;30569;51.252;9.830;2023-05-07T04:28:55;35.80;;;21.38;;
44832;SDS011;30569;51.252;9.830;2023-05-07T04:31:22;33.28;;;20.15;;
44832;SDS011;30569;51.252;9.830;2023-05-07T04:33:48;30.05;;;18.75;;
44832;SDS011;30569;51.252;9.830;2023-05-07T04:36:15;33.72;;;21.45;;
44832;SDS011;30569;51.252;9.830;2023-05-07T04:38:41;34.33;;;21.05;;
44832;SDS011;30569;51.252;9.830;2023-05-07T04:41:08;33.45;;;21.80;;
44832;SDS011;30569;51.252;9.830;2023-05-07T04:43:34;32.35;;;20.05;;
44832;SDS011;30569;51.252;9.830;2023-05-07T04:46:00;34.03;;;20.30;;
44832;SDS011;30569;51.252;9.830;2023-05-07T04:48:25;35.83;;;19.23;;
44832;SDS011;30569;51.252;9.830;2023-05-07T04:50:52;32.50;;;18.38;;
44832;SDS011;30569;51.252;9.830;2023-05-07T04:53:18;32.78;;;19.80;;
44832;SDS011;30569;51.252;9.830;2023-05-07T04:55:44;29.00;;;17.63;;
44832;SDS011;30569;51.252;9.830;2023-05-07T04:58:12;31.73;;;19.05;;
44832;SDS011;30569;51.252;9.830;2023-05-07T05:00:38;28.00;;;15.25;;
44832;SDS011;30569;51.252;9.830;2023-05-07T05:03:06;27.15;;;16.67;;
44832;SDS011;30569;51.252;9.830;2023-05-07T05:05:32;26.92;;;17.27;;
44832;SDS011;30569;51.252;9.830;2023-05-07T05:07:58;27.25;;;16.63;;
44832;SDS011;30569;51.252;9.830;2023-05-07T05:10:23;25.92;;;15.98;;
44832;SDS011;30569;51.252;9.830;2023-05-07T05:12:49;23.85;;;15.48;;
44832;SDS011;30569;51.252;9.830;2023-05-07T05:15:15;25.08;;;15.15;;
44832;SDS011;30569;51.252;9.830;2023-05-07T05:17:40;25.10;;;15.13;;
44832;SDS011;30569;51.252;9.830;2023-05-07T05:20:06;23.67;;;14.05;;
44832;SDS011;30569;51.252;9.830;2023-05-07T05:22:32;24.08;;;13.85;;
44832;SDS011;30569;51.252;9.830;2023-05-07T05:24:58;25.92;;;16.10;;
44832;SDS011;30569;51.252;9.830;2023-05-07T05:27:23;24.75;;;14.20;;
44832;SDS011;30569;51.252;9.830;2023-05-07T05:29:49;26.23;;;15.38;;
44832;SDS011;30569;51.252;9.830;2023-05-07T05:32:15;24.02;;;14.00;;
44832;SDS011;30569;51.252;9.830;2023-05-07T05:34:40;24.95;;;15.48;;
44832;SDS011;30569;51.252;9.830;2023-05-07T05:37:06;25.90;;;14.40;;
44832;SDS011;30569;51.252;9.830;2023-05-07T05:39:32;21.08;;;11.80;;
44832;SDS011;30569;51.252;9.830;2023-05-07T05:41:57;21.98;;;13.55;;
44832;SDS011;30569;51.252;9.830;2023-05-07T05:44:23;16.58;;;9.88;;
44832;SDS011;30569;51.252;9.830;2023-05-07T05:46:52;17.75;;;8.98;;
44832;SDS011;30569;51.252;9.830;2023-05-07T05:49:20;15.93;;;9.43;;
44832;SDS011;30569;51.252;9.830;2023-05-07T05:51:45;16.10;;;9.93;;
44832;SDS011;30569;51.252;9.830;2023-05-07T05:54:11;15.48;;;8.90;;
44832;SDS011;30569;51.252;9.830;2023-05-07T05:56:37;15.93;;;8.50;;
44832;SDS011;30569;51.252;9.830;2023-05-07T05:59:02;13.43;;;7.65;;
44832;SDS011;30569;51.252;9.830;2023-05-07T06:01:28;15.57;;;8.40;;
44832;SDS011;30569;51.252;9.830;2023-05-07T06:03:54;13.02;;;7.57;;
44832;SDS011;30569;51.252;9.830;2023-05-07T06:06:19;19.52;;;10.60;;
44832;SDS011;30569;51.252;9.830;2023-05-07T06:08:45;18.23;;;10.48;;
44832;SDS011;30569;51.252;9.830;2023-05-07T06:11:11;14.60;;;9.15;;
44832;SDS011;30569;51.252;9.830;2023-05-07T06:13:36;16.05;;;9.68;;
44832;SDS011;30569;51.252;9.830;2023-05-07T06:16:02;15.52;;;9.40;;
44832;SDS011;30569;51.252;9.830;2023-05-07T06:18:27;15.63;;;9.82;;
44832;SDS011;30569;51.252;9.830;2023-05-07T06:20:53;18.70;;;9.98;;
44832;SDS011;30569;51.252;9.830;2023-05-07T06:23:19;19.05;;;10.50;;
44832;SDS011;30569;51.252;9.830;2023-05-07T06:25:48;18.48;;;10.85;;
44832;SDS011;30569;51.252;9.830;2023-05-07T06:28:15;15.93;;;9.23;;
44832;SDS011;30569;51.252;9.830;2023-05-07T06:30:40;16.17;;;9.77;;
44832;SDS011;30569;51.252;9.830;2023-05-07T06:33:06;16.38;;;9.70;;
44832;SDS011;30569;51.252;9.830;2023-05-07T06:35:32;19.95;;;11.15;;
44832;SDS011;30569;51.252;9.830;2023-05-07T06:37:58;20.27;;;12.10;;
44832;SDS011;30569;51.252;9.830;2023-05-07T06:40:24;19.25;;;11.45;;
44832;SDS011;30569;51.252;9.830;2023-05-07T06:42:50;18.08;;;10.43;;
44832;SDS011;30569;51.252;9.830;2023-05-07T06:45:16;16.25;;;10.60;;
44832;SDS011;30569;51.252;9.830;2023-05-07T06:47:41;15.85;;;10.82;;
44832;SDS011;30569;51.252;9.830;2023-05-07T06:50:08;18.10;;;11.70;;
44832;SDS011;30569;51.252;9.830;2023-05-07T06:52:34;19.38;;;13.20;;
44832;SDS011;30569;51.252;9.830;2023-05-07T06:55:00;19.48;;;12.50;;
44832;SDS011;30569;51.252;9.830;2023-05-07T06:57:26;20.38;;;12.35;;
44832;SDS011;30569;51.252;9.830;2023-05-07T06:59:51;20.60;;;13.77;;
44832;SDS011;30569;51.252;9.830;2023-05-07T07:02:17;19.98;;;12.90;;
44832;SDS011;30569;51.252;9.830;2023-05-07T07:04:43;15.77;;;11.00;;
44832;SDS011;30569;51.252;9.830;2023-05-07T07:07:10;17.83;;;11.82;;
44832;SDS011;30569;51.252;9.830;2023-05-07T07:09:36;21.02;;;12.98;;
44832;SDS011;30569;51.252;9.830;2023-05-07T07:12:02;16.92;;;11.48;;
44832;SDS011;30569;51.252;9.830;2023-05-07T07:14:27;19.17;;;11.75;;
44832;SDS011;30569;51.252;9.830;2023-05-07T07:16:53;19.20;;;12.38;;
44832;SDS011;30569;51.252;9.830;2023-05-07T07:19:19;14.82;;;10.55;;
44832;SDS011;30569;51.252;9.830;2023-05-07T07:21:45;15.82;;;10.45;;
44832;SDS011;30569;51.252;9.830;2023-05-07T07:24:11;15.38;;;10.23;;
44832;SDS011;30569;51.252;9.830;2023-05-07T07:26:37;19.45;;;12.98;;
44832;SDS011;30569;51.252;9.830;2023-05-07T07:29:04;15.73;;;10.05;;
44832;SDS011;30569;51.252;9.830;2023-05-07T07:31:31;15.98;;;11.05;;
44832;SDS011;30569;51.252;9.830;2023-05-07T07:33:57;18.25;;;11.40;;
44832;SDS011;30569;51.252;9.830;2023-05-07T07:36:23;14.77;;;10.10;;
44832;SDS011;30569;51.252;9.830;2023-05-07T07:38:49;15.75;;;11.18;;
44832;SDS011;30569;51.252;9.830;2023-05-07T07:41:14;15.07;;;9.45;;
44832;SDS011;30569;51.252;9.830;2023-05-07T07:43:40;12.57;;;8.90;;
44832;SDS011;30569;51.252;9.830;2023-05-07T07:46:05;13.82;;;9.30;;
44832;SDS011;30569;51.252;9.830;2023-05-07T07:48:31;11.63;;;8.07;;
44832;SDS011;30569;51.252;9.830;2023-05-07T07:50:57;13.93;;;8.50;;
44832;SDS011;30569;51.252;9.830;2023-05-07T07:53:22;11.82;;;7.88;;
44832;SDS011;30569;51.252;9.830;2023-05-07T07:55:48;11.10;;;7.88;;
44832;SDS011;30569;51.252;9.830;2023-05-07T07:58:14;13.85;;;8.23;;
44832;SDS011;30569;51.252;9.830;2023-05-07T08:00:40;11.23;;;7.32;;
44832;SDS011;30569;51.252;9.830;2023-05-07T08:03:08;11.77;;;6.57;;
44832;SDS011;30569;51.252;9.830;2023-05-07T08:05:35;10.40;;;7.53;;
44832;SDS011;30569;51.252;9.830;2023-05-07T08:08:01;10.38;;;7.20;;
44832;SDS011;30569;51.252;9.830;2023-05-07T08:10:27;10.60;;;7.05;;
44832;SDS011;30569;51.252;9.830;2023-05-07T08:12:53;9.95;;;6.72;;
44832;SDS011;30569;51.252;9.830;2023-05-07T08:15:18;11.52;;;7.47;;
44832;SDS011;30569;51.252;9.830;2023-05-07T08:17:44;8.55;;;6.20;;
44832;SDS011;30569;51.252;9.830;2023-05-07T08:20:09;11.55;;;6.57;;
44832;SDS011;30569;51.252;9.830;2023-05-07T08:22:35;9.68;;;6.32;;
44832;SDS011;30569;51.252;9.830;2023-05-07T08:25:02;9.60;;;6.45;;
44832;SDS011;30569;51.252;9.830;2023-05-07T08:27:28;11.60;;;6.22;;
44832;SDS011;30569;51.252;9.830;2023-05-07T08:29:54;10.57;;;6.25;;
44832;SDS011;30569;51.252;9.830;2023-05-07T08:32:20;9.07;;;5.80;;
44832;SDS011;30569;51.252;9.830;2023-05-07T08:34:47;8.90;;;5.65;;
44832;SDS011;30569;51.252;9.830;2023-05-07T08:37:12;8.38;;;5.18;;
44832;SDS011;30569;51.252;9.830;2023-05-07T08:39:38;8.65;;;5.80;;
44832;SDS011;30569;51.252;9.830;2023-05-07T08:42:04;8.52;;;5.50;;
44832;SDS011;30569;51.252;9.830;2023-05-07T08:44:34;9.45;;;5.60;;
44832;SDS011;30569;51.252;9.830;2023-05-07T08:47:00;9.55;;;5.97;;
44832;SDS011;30569;51.252;9.830;2023-05-07T08:49:27;9.60;;;6.05;;
44832;SDS011;30569;51.252;9.830;2023-05-07T08:51:53;9.82;;;5.53;;
44832;SDS011;30569;51.252;9.830;2023-05-07T08:54:20;8.07;;;5.35;;
44832;SDS011;30569;51.252;9.830;2023-05-07T08:56:46;8.27;;;5.40;;
44832;SDS011;30569;51.252;9.830;2023-05-07T08:59:13;8.02;;;5.25;;
44832;SDS011;30569;51.252;9.830;2023-05-07T09:01:38;7.82;;;5.00;;
44832;SDS011;30569;51.252;9.830;2023-05-07T09:04:04;8.65;;;5.50;;
44832;SDS011;30569;51.252;9.830;2023-05-07T09:06:31;10.57;;;6.07;;
44832;SDS011;30569;51.252;9.830;2023-05-07T09:08:57;9.20;;;6.18;;
44832;SDS011;30569;51.252;9.830;2023-05-07T09:11:26;9.65;;;6.30;;
44832;SDS011;30569;51.252;9.830;2023-05-07T09:13:55;9.30;;;6.47;;
44832;SDS011;30569;51.252;9.830;2023-05-07T09:16:23;10.68;;;6.35;;
44832;SDS011;30569;51.252;9.830;2023-05-07T09:18:52;12.15;;;6.63;;
44832;SDS011;30569;51.252;9.830;2023-05-07T09:21:19;10.45;;;6.63;;
44832;SDS011;30569;51.252;9.830;2023-05-07T09:23:48;11.05;;;6.22;;
44832;SDS011;30569;51.252;9.830;2023-05-07T09:26:15;12.35;;;6.85;;
44832;SDS011;30569;51.252;9.830;2023-05-07T09:28:41;11.82;;;7.30;;
44832;SDS011;30569;51.252;9.830;2023-05-07T09:31:07;11.02;;;7.05;;
44832;SDS011;30569;51.252;9.830;2023-05-07T09:33:33;11.85;;;7.60;;
44832;SDS011;30569;51.252;9.830;2023-05-07T09:36:06;11.45;;;7.55;;
44832;SDS011;30569;51.252;9.830;2023-05-07T09:38:33;10.73;;;7.25;;
44832;SDS011;30569;51.252;9.830;2023-05-07T09:43:34;11.82;;;7.10;;
44832;SDS011;30569;51.252;9.830;2023-05-07T09:46:13;11.23;;;7.78;;
44832;SDS011;30569;51.252;9.830;2023-05-07T09:48:42;11.32;;;7.75;;
44832;SDS011;30569;51.252;9.830;2023-05-07T09:51:11;11.45;;;7.78;;
44832;SDS011;30569;51.252;9.830;2023-05-07T09:53:47;12.13;;;7.63;;
44832;SDS011;30569;51.252;9.830;2023-05-07T09:56:14;11.68;;;7.82;;
44832;SDS011;30569;51.252;9.830;2023-05-07T09:58:41;11.95;;;8.05;;
44832;SDS011;30569;51.252;9.830;2023-05-07T10:01:07;11.10;;;7.68;;
44832;SDS011;30569;51.252;9.830;2023-05-07T10:03:33;10.25;;;7.50;;
44832;SDS011;30569;51.252;9.830;2023-05-07T10:06:01;11.40;;;7.97;;
44832;SDS011;30569;51.252;9.830;2023-05-07T10:08:27;10.82;;;8.13;;
44832;SDS011;30569;51.252;9.830;2023-05-07T10:10:55;12.40;;;8.43;;
44832;SDS011;30569;51.252;9.830;2023-05-07T10:13:21;9.98;;;7.10;;
44832;SDS011;30569;51.252;9.830;2023-05-07T10:15:47;10.90;;;7.50;;
44832;SDS011;30569;51.252;9.830;2023-05-07T10:18:13;11.80;;;8.32;;
44832;SDS011;30569;51.252;9.830;2023-05-07T10:20:39;12.10;;;8.38;;
44832;SDS011;30569;51.252;9.830;2023-05-07T10:23:07;12.20;;;7.78;;
44832;SDS011;30569;51.252;9.830;2023-05-07T10:25:37;12.02;;;8.25;;
44832;SDS011;30569;51.252;9.830;2023-05-07T10:28:04;10.57;;;7.70;;
44832;SDS011;30569;51.252;9.830;2023-05-07T10:30:38;13.63;;;8.93;;
44832;SDS011;30569;51.252;9.830;2023-05-07T10:33:14;12.48;;;8.57;;
44832;SDS011;30569;51.252;9.830;2023-05-07T10:35:43;12.40;;;9.20;;
44832;SDS011;30569;51.252;9.830;2023-05-07T10:38:10;11.20;;;8.45;;
44832;SDS011;30569;51.252;9.830;2023-05-07T10:40:36;10.93;;;8.32;;
44832;SDS011;30569;51.252;9.830;2023-05-07T10:43:03;12.77;;;9.10;;
44832;SDS011;30569;51.252;9.830;2023-05-07T10:45:30;12.57;;;9.30;;
44832;SDS011;30569;51.252;9.830;2023-05-07T10:48:06;12.23;;;8.48;;
44832;SDS011;30569;51.252;9.830;2023-05-07T10:50:35;11.75;;;8.98;;
44832;SDS011;30569;51.252;9.830;2023-05-07T10:55:43;12.50;;;8.30;;
44832;SDS011;30569;51.252;9.830;2023-05-07T11:00:47;12.85;;;8.80;;
44832;SDS011;30569;51.252;9.830;2023-05-07T11:03:13;12.23;;;8.00;;
44832;SDS011;30569;51.252;9.830;2023-05-07T11:05:40;10.35;;;7.75;;
44832;SDS011;30569;51.252;9.830;2023-05-07T11:08:07;12.35;;;8.65;;
44832;SDS011;30569;51.252;9.830;2023-05-07T11:13:40;11.25;;;7.65;;
44832;SDS011;30569;51.252;9.830;2023-05-07T11:16:16;13.85;;;8.98;;
44832;SDS011;30569;51.252;9.830;2023-05-07T11:18:46;12.25;;;8.88;;
44832;SDS011;30569;51.252;9.830;2023-05-07T11:21:14;14.05;;;8.38;;
44832;SDS011;30569;51.252;9.830;2023-05-07T11:26:23;12.43;;;8.77;;
44832;SDS011;30569;51.252;9.830;2023-05-07T11:28:50;11.35;;;9.00;;
44832;SDS011;30569;51.252;9.830;2023-05-07T11:31:20;13.05;;;9.45;;
44832;SDS011;30569;51.252;9.830;2023-05-07T11:33:48;11.73;;;8.73;;
44832;SDS011;30569;51.252;9.830;2023-05-07T11:36:14;13.50;;;9.88;;
44832;SDS011;30569;51.252;9.830;2023-05-07T11:38:40;11.48;;;9.00;;
44832;SDS011;30569;51.252;9.830;2023-05-07T11:41:06;14.02;;;9.75;;
44832;SDS011;30569;51.252;9.830;2023-05-07T11:43:33;12.70;;;9.52;;
44832;SDS011;30569;51.252;9.830;2023-05-07T11:46:10;13.95;;;9.25;;
44832;SDS011;30569;51.252;9.830;2023-05-07T11:48:37;12.65;;;9.38;;
44832;SDS011;30569;51.252;9.830;2023-05-07T11:51:04;14.88;;;9.40;;
44832;SDS011;30569;51.252;9.830;2023-05-07T11:53:40;12.45;;;9.52;;
44832;SDS011;30569;51.252;9.830;2023-05-07T11:56:08;13.18;;;9.07;;
44832;SDS011;30569;51.252;9.830;2023-05-07T11:58:34;13.98;;;10.27;;
44832;SDS011;30569;51.252;9.830;2023-05-07T12:01:00;14.07;;;10.32;;
44832;SDS011;30569;51.252;9.830;2023-05-07T12:03:26;13.57;;;10.00;;
44832;SDS011;30569;51.252;9.830;2023-05-07T12:05:52;14.20;;;10.40;;
44832;SDS011;30569;51.252;9.830;2023-05-07T12:08:18;14.25;;;10.15;;
44832;SDS011;30569;51.252;9.830;2023-05-07T12:10:44;13.35;;;9.40;;
44832;SDS011;30569;51.252;9.830;2023-05-07T12:13:19;14.13;;;9.80;;
44832;SDS011;30569;51.252;9.830;2023-05-07T12:15:53;13.65;;;10.02;;
44832;SDS011;30569;51.252;9.830;2023-05-07T12:18:19;14.95;;;11.23;;
44832;SDS011;30569;51.252;9.830;2023-05-07T12:20:46;13.60;;;10.57;;
44832;SDS011;30569;51.252;9.830;2023-05-07T12:23:12;15.20;;;10.73;;
44832;SDS011;30569;51.252;9.830;2023-05-07T12:25:39;13.02;;;10.05;;
44832;SDS011;30569;51.252;9.830;2023-05-07T12:28:07;14.38;;;10.43;;
44832;SDS011;30569;51.252;9.830;2023-05-07T12:30:39;15.45;;;11.27;;
44832;SDS011;30569;51.252;9.830;2023-05-07T12:33:05;14.07;;;10.57;;
44832;SDS011;30569;51.252;9.830;2023-05-07T12:35:31;14.65;;;10.52;;
44832;SDS011;30569;51.252;9.830;2023-05-07T12:38:01;13.50;;;9.90;;
44832;SDS011;30569;51.252;9.830;2023-05-07T12:40:39;16.17;;;11.15;;
44832;SDS011;30569;51.252;9.830;2023-05-07T12:43:06;12.43;;;8.82;;
44832;SDS011;30569;51.252;9.830;2023-05-07T12:45:36;19.70;;;11.13;;
44832;SDS011;30569;51.252;9.830;2023-05-07T12:48:03;13.65;;;9.85;;
44832;SDS011;30569;51.252;9.830;2023-05-07T12:50:32;14.10;;;10.15;;
44832;SDS011;30569;51.252;9.830;2023-05-07T12:52:58;19.45;;;11.32;;
44832;SDS011;30569;51.252;9.830;2023-05-07T12:55:24;17.38;;;11.35;;
44832;SDS011;30569;51.252;9.830;2023-05-07T12:57:51;12.88;;;10.48;;
44832;SDS011;30569;51.252;9.830;2023-05-07T13:00:32;14.77;;;10.60;;
44832;SDS011;30569;51.252;9.830;2023-05-07T13:03:01;15.23;;;10.70;;
44832;SDS011;30569;51.252;9.830;2023-05-07T13:05:27;13.88;;;10.95;;
44832;SDS011;30569;51.252;9.830;2023-05-07T13:07:53;12.63;;;9.90;;
44832;SDS011;30569;51.252;9.830;2023-05-07T13:10:22;14.75;;;10.70;;
44832;SDS011;30569;51.252;9.830;2023-05-07T13:12:48;13.68;;;10.82;;
44832;SDS011;30569;51.252;9.830;2023-05-07T13:15:14;13.70;;;11.00;;
44832;SDS011;30569;51.252;9.830;2023-05-07T13:17:40;12.95;;;9.98;;
44832;SDS011;30569;51.252;9.830;2023-05-07T13:20:06;13.18;;;10.43;;
44832;SDS011;30569;51.252;9.830;2023-05-07T13:22:34;15.20;;;10.65;;
44832;SDS011;30569;51.252;9.830;2023-05-07T13:24:59;12.98;;;9.90;;
44832;SDS011;30569;51.252;9.830;2023-05-07T13:27:25;13.10;;;9.10;;
44832;SDS011;30569;51.252;9.830;2023-05-07T13:29:51;14.25;;;10.57;;
44832;SDS011;30569;51.252;9.830;2023-05-07T13:32:16;12.95;;;10.40;;
44832;SDS011;30569;51.252;9.830;2023-05-07T13:34:42;12.88;;;9.48;;
44832;SDS011;30569;51.252;9.830;2023-05-07T13:37:07;14.85;;;9.73;;
44832;SDS011;30569;51.252;9.830;2023-05-07T13:39:33;13.57;;;9.95;;
44832;SDS011;30569;51.252;9.830;2023-05-07T13:41:58;13.65;;;9.98;;
44832;SDS011;30569;51.252;9.830;2023-05-07T13:44:24;15.85;;;10.70;;
44832;SDS011;30569;51.252;9.830;2023-05-07T13:46:50;14.73;;;10.77;;
44832;SDS011;30569;51.252;9.830;2023-05-07T13:49:16;13.85;;;10.35;;
44832;SDS011;30569;51.252;9.830;2023-05-07T13:51:42;14.30;;;10.35;;
44832;SDS011;30569;51.252;9.830;2023-05-07T13:54:08;14.65;;;10.23;;
44832;SDS011;30569;51.252;9.830;2023-05-07T13:56:33;15.25;;;10.93;;
44832;SDS011;30569;51.252;9.830;2023-05-07T13:58:59;13.65;;;9.60;;
44832;SDS011;30569;51.252;9.830;2023-05-07T14:01:24;14.13;;;10.50;;
44832;SDS011;30569;51.252;9.830;2023-05-07T14:03:50;14.32;;;10.60;;
44832;SDS011;30569;51.252;9.830;2023-05-07T14:06:16;13.45;;;9.88;;
44832;SDS011;30569;51.252;9.830;2023-05-07T14:08:42;15.57;;;10.35;;
44832;SDS011;30569;51.252;9.830;2023-05-07T14:11:07;16.50;;;11.82;;
44832;SDS011;30569;51.252;9.830;2023-05-07T14:13:33;13.20;;;10.82;;
44832;SDS011;30569;51.252;9.830;2023-05-07T14:15:59;12.75;;;10.30;;
44832;SDS011;30569;51.252;9.830;2023-05-07T14:18:25;13.85;;;10.63;;
44832;SDS011;30569;51.252;9.830;2023-05-07T14:20:51;14.80;;;11.45;;
44832;SDS011;30569;51.252;9.830;2023-05-07T14:23:17;16.02;;;11.35;;
44832;SDS011;30569;51.252;9.830;2023-05-07T14:25:44;16.00;;;11.27;;
44832;SDS011;30569;51.252;9.830;2023-05-07T14:28:12;16.40;;;11.73;;
44832;SDS011;30569;51.252;9.830;2023-05-07T14:30:38;15.60;;;11.63;;
44832;SDS011;30569;51.252;9.830;2023-05-07T14:33:04;14.27;;;11.45;;
44832;SDS011;30569;51.252;9.830;2023-05-07T14:35:30;16.83;;;12.88;;